Time;durP1;ratioP1;P1;durP2;ratioP2;P2;SDS_P1;SDS_P2;PMS_P1;PMS_P2;Temp;Humidity;BMP_temperature;BMP_pressure;BME280_temperature;BME280_humidity;BME280_pressure;Samples;Min_cycle;Max_cycle;Signal;HPM_P1;HPM_P2
2021/06/14 00:04:42;;;;;;;4.20;1.80;;;;;;;;;;10331177;28;20032;-66
2021/06/14 00:09:40;;;;;;;4.97;2.43;;;;;;;;;;10327149;28;20071;-66
2021/06/14 00:14:37;;;;;;;4.33;2.20;;;;;;;;;;10324869;28;20110;-67
2021/06/14 00:19:34;;;;;;;3.50;2.07;;;;;;;;;;10307880;28;20337;-66
2021/06/14 00:24:32;;;;;;;3.90;2.10;;;;;;;;;;10300925;28;20042;-67
2021/06/14 00:29:29;;;;;;;3.43;2.13;;;;;;;;;;10273662;28;20034;-66
2021/06/14 00:34:28;;;;;;;4.82;2.25;;;;;;;;;;10269561;28;20049;-67
2021/06/14 00:39:27;;;;;;;2.70;2.15;;;;;;;;;;10296799;28;20029;-66
2021/06/14 00:44:24;;;;;;;2.63;2.13;;;;;;;;;;10280390;28;20025;-66
2021/06/14 00:49:22;;;;;;;3.05;2.30;;;;;;;;;;10266057;28;20045;-66
2021/06/14 00:54:20;;;;;;;4.43;2.30;;;;;;;;;;10313939;28;20048;-67
2021/06/14 00:59:18;;;;;;;3.10;2.30;;;;;;;;;;10342180;28;20029;-67
2021/06/14 01:04:17;;;;;;;4.73;2.67;;;;;;;;;;10301019;28;20029;-67
2021/06/14 01:09:15;;;;;;;6.45;2.53;;;;;;;;;;10280343;28;20064;-67
2021/06/14 01:14:23;;;;;;;3.45;2.13;;;;;;;;;;10288462;28;20072;-66
2021/06/14 01:19:40;;;;;;;5.40;2.67;;;;;;;;;;10336325;28;20079;-67
2021/06/14 01:24:44;;;;;;;4.18;2.33;;;;;;;;;;10338123;28;20041;-66
2021/06/14 01:29:43;;;;;;;3.60;2.38;;;;;;;;;;10335756;28;20515;-66
2021/06/14 01:34:43;;;;;;;2.95;2.17;;;;;;;;;;10312799;28;20599;-66
2021/06/14 01:39:42;;;;;;;4.07;2.35;;;;;;;;;;10318840;28;20029;-67
2021/06/14 01:44:41;;;;;;;5.22;2.47;;;;;;;;;;10317291;28;20052;-67
2021/06/14 01:49:43;;;;;;;3.03;2.63;;;;;;;;;;10321211;28;20062;-67
2021/06/14 01:55:01;;;;;;;2.83;2.30;;;;;;;;;;10339073;28;20029;-67
2021/06/14 02:00:10;;;;;;;4.38;2.50;;;;;;;;;;10319523;28;20628;-66
2021/06/14 02:05:23;;;;;;;3.40;2.50;;;;;;;;;;10319965;28;20080;-67
2021/06/14 02:10:22;;;;;;;3.90;2.55;;;;;;;;;;10312299;28;20116;-66
2021/06/14 02:15:19;;;;;;;;;;;;;;;;;;10314186;28;20364;-66
2021/06/14 02:20:17;;;;;;;3.47;2.53;;;;;;;;;;10308606;28;20014;-65
2021/06/14 02:25:15;;;;;;;5.70;2.90;;;;;;;;;;10333127;28;20060;-67
2021/06/14 02:30:16;;;;;;;3.50;2.83;;;;;;;;;;10333997;28;20378;-66
2021/06/14 02:35:14;;;;;;;7.00;3.35;;;;;;;;;;10316074;28;20036;-65
2021/06/14 02:40:13;;;;;;;5.40;2.87;;;;;;;;;;10340521;28;20040;-67
2021/06/14 02:45:11;;;;;;;7.75;3.15;;;;;;;;;;10309042;28;20029;-66
2021/06/14 02:50:09;;;;;;;4.50;2.92;;;;;;;;;;10324322;28;20044;-66
2021/06/14 02:55:12;;;;;;;7.60;3.22;;;;;;;;;;10323498;28;20104;-66
2021/06/14 03:00:11;;;;;;;5.00;3.42;;;;;;;;;;10322999;28;20037;-66
2021/06/14 03:05:11;;;;;;;5.97;3.38;;;;;;;;;;10322768;28;20435;-67
2021/06/14 03:10:10;;;;;;;6.07;3.40;;;;;;;;;;10321092;28;20037;-67
2021/06/14 03:15:08;;;;;;;;;;;;;;;;;;10323537;28;20116;-66
2021/06/14 03:20:06;;;;;;;4.88;2.97;;;;;;;;;;10339344;28;19952;-67
2021/06/14 03:25:05;;;;;;;5.05;3.10;;;;;;;;;;10304982;28;20037;-66
2021/06/14 03:30:03;;;;;;;3.60;2.67;;;;;;;;;;10322262;28;20498;-66
2021/06/14 03:35:02;;;;;;;4.97;2.88;;;;;;;;;;10339800;28;20044;-67
2021/06/14 03:40:00;;;;;;;4.55;2.85;;;;;;;;;;10337087;28;20040;-66
2021/06/14 03:44:58;;;;;;;3.87;2.37;;;;;;;;;;10339365;28;20083;-66
2021/06/14 03:49:55;;;;;;;3.57;2.77;;;;;;;;;;10299966;28;154623;-66
2021/06/14 03:54:53;;;;;;;4.00;2.80;;;;;;;;;;10322278;28;20061;-66
2021/06/14 03:59:50;;;;;;;3.77;2.57;;;;;;;;;;10309345;28;20033;-66
2021/06/14 04:04:55;;;;;;;3.80;2.80;;;;;;;;;;10340338;28;20041;-67
2021/06/14 04:10:11;;;;;;;2.65;2.22;;;;;;;;;;10324846;28;20073;-66
2021/06/14 04:15:09;;;;;;;3.03;2.63;;;;;;;;;;10306799;28;20041;-66
2021/06/14 04:20:07;;;;;;;3.33;2.33;;;;;;;;;;10337642;28;20041;-66
2021/06/14 04:25:05;;;;;;;3.83;2.20;;;;;;;;;;10320251;28;20037;-66
2021/06/14 04:30:03;;;;;;;4.73;2.57;;;;;;;;;;10338368;28;20057;-66
2021/06/14 04:35:00;;;;;;;;;;;;;;;;;;10294450;28;20123;-66
2021/06/14 04:39:58;;;;;;;5.03;3.17;;;;;;;;;;10327227;28;19923;-67
2021/06/14 04:44:56;;;;;;;4.93;3.25;;;;;;;;;;10305800;28;20417;-67
2021/06/14 04:49:53;;;;;;;10.17;4.03;;;;;;;;;;10314076;28;20044;-66
2021/06/14 04:54:51;;;;;;;6.20;4.03;;;;;;;;;;10320453;28;20044;-67
2021/06/14 04:59:48;;;;;;;5.73;3.80;;;;;;;;;;10348920;28;20052;-66
2021/06/14 05:04:46;;;;;;;5.37;3.13;;;;;;;;;;10328167;28;20407;-66
2021/06/14 05:09:44;;;;;;;7.70;4.70;;;;;;;;;;10318493;28;20045;-66
2021/06/14 05:14:41;;;;;;;6.63;3.50;;;;;;;;;;10336765;28;20172;-66
2021/06/14 05:19:38;;;;;;;4.90;3.20;;;;;;;;;;10335349;28;20041;-67
2021/06/14 05:24:36;;;;;;;10.43;4.23;;;;;;;;;;10324411;28;20434;-68
2021/06/14 05:29:33;;;;;;;9.70;4.60;;;;;;;;;;10304120;28;20028;-67
2021/06/14 05:34:31;;;;;;;9.73;4.90;;;;;;;;;;10306081;28;20032;-67
2021/06/14 05:39:28;;;;;;;9.27;4.57;;;;;;;;;;10329015;28;20167;-66
2021/06/14 05:44:27;;;;;;;12.80;4.90;;;;;;;;;;10301953;28;20035;-67
2021/06/14 05:49:24;;;;;;;;;;;;;;;;;;10305958;28;20029;-66
2021/06/14 05:54:22;;;;;;;10.30;4.40;;;;;;;;;;10325523;28;19938;-65
2021/06/14 05:59:20;;;;;;;10.15;4.95;;;;;;;;;;10313106;28;20025;-66
2021/06/14 06:04:19;;;;;;;9.80;4.80;;;;;;;;;;10318426;28;20013;-67
2021/06/14 06:09:17;;;;;;;9.48;3.92;;;;;;;;;;10319434;28;20025;-67
2021/06/14 06:14:15;;;;;;;9.05;4.47;;;;;;;;;;10301314;28;20460;-67
2021/06/14 06:19:12;;;;;;;9.30;4.03;;;;;;;;;;10318688;28;20421;-66
2021/06/14 06:24:10;;;;;;;9.07;4.40;;;;;;;;;;10316907;28;20013;-66
2021/06/14 06:29:07;;;;;;;8.83;4.30;;;;;;;;;;10298786;28;20045;-67
2021/06/14 06:34:05;;;;;;;8.57;4.70;;;;;;;;;;10311774;28;20140;-67
2021/06/14 06:39:03;;;;;;;9.83;4.40;;;;;;;;;;10314937;28;20658;-67
2021/06/14 06:44:00;;;;;;;;;;;;;;;;;;10312511;28;20037;-66
2021/06/14 06:48:58;;;;;;;11.50;5.10;;;;;;;;;;10343008;28;19917;-67
2021/06/14 06:54:17;;;;;;;8.90;4.60;;;;;;;;;;10313540;28;20098;-67
2021/06/14 06:59:14;;;;;;;10.60;4.27;;;;;;;;;;10300686;28;20152;-67
2021/06/14 07:04:11;;;;;;;9.68;5.05;;;;;;;;;;10328817;28;20562;-69
2021/06/14 07:09:09;;;;;;;8.80;4.83;;;;;;;;;;10286312;28;20029;-66
2021/06/14 07:14:06;;;;;;;;;;;;;;;;;;10318227;28;20108;-67
2021/06/14 07:19:04;;;;;;;11.73;4.97;;;;;;;;;;10322043;28;19924;-66
2021/06/14 07:24:01;;;;;;;;;;;;;;;;;;10330384;28;20389;-66
2021/06/14 07:28:59;;;;;;;8.18;4.15;;;;;;;;;;10326697;28;20213;-66
2021/06/14 07:34:02;;;;;;;;;;;;;;;;;;10332949;28;20033;-66
2021/06/14 07:39:00;;;;;;;8.75;4.47;;;;;;;;;;10327704;28;19917;-66
2021/06/14 07:43:57;;;;;;;;;;;;;;;;;;10303872;28;20048;-66
2021/06/14 07:48:54;;;;;;;9.77;3.83;;;;;;;;;;10317713;28;20381;-65
2021/06/14 07:53:53;;;;;;;4.33;3.37;;;;;;;;;;10304641;28;20051;-66
2021/06/14 07:58:50;;;;;;;6.40;3.58;;;;;;;;;;10326148;28;20349;-67
2021/06/14 08:03:48;;;;;;;7.57;3.75;;;;;;;;;;10340702;28;20086;-65
2021/06/14 08:08:45;;;;;;;7.38;4.10;;;;;;;;;;10323798;28;20371;-65
2021/06/14 08:13:43;;;;;;;7.20;3.72;;;;;;;;;;10315049;28;20033;-65
2021/06/14 08:18:49;;;;;;;6.85;3.53;;;;;;;;;;10334376;28;20505;-65
2021/06/14 08:29:04;;;;;;;6.40;3.43;;;;;;;;;;10284165;28;20613;-67
2021/06/14 08:34:02;;;;;;;7.07;3.70;;;;;;;;;;10340157;28;20705;-67
2021/06/14 08:39:00;;;;;;;6.65;3.70;;;;;;;;;;10345864;28;20041;-66
2021/06/14 08:43:58;;;;;;;8.00;4.05;;;;;;;;;;10313162;28;20037;-66
2021/06/14 08:48:55;;;;;;;5.80;2.97;;;;;;;;;;10331789;28;20049;-66
2021/06/14 08:53:53;;;;;;;7.60;3.97;;;;;;;;;;10332762;28;20036;-66
2021/06/14 08:58:52;;;;;;;7.97;4.13;;;;;;;;;;10295142;28;20123;-66
2021/06/14 09:03:49;;;;;;;8.73;3.45;;;;;;;;;;10329812;28;20081;-66
2021/06/14 09:08:56;;;;;;;6.45;3.58;;;;;;;;;;10330387;28;20056;-66
2021/06/14 09:13:53;;;;;;;7.47;3.87;;;;;;;;;;10304684;28;20533;-66
2021/06/14 09:18:51;;;;;;;6.07;3.45;;;;;;;;;;10332318;28;20033;-67
2021/06/14 09:23:53;;;;;;;6.82;4.00;;;;;;;;;;10321054;28;20414;-66
2021/06/14 09:28:53;;;;;;;7.72;4.07;;;;;;;;;;10346453;28;20465;-66
2021/06/14 09:33:51;;;;;;;6.65;3.42;;;;;;;;;;10309160;28;20411;-66
2021/06/14 09:38:49;;;;;;;8.80;4.33;;;;;;;;;;10304471;28;20037;-68
2021/06/14 09:43:47;;;;;;;4.47;3.17;;;;;;;;;;10296742;28;20426;-66
2021/06/14 09:48:44;;;;;;;12.07;3.75;;;;;;;;;;10305186;28;20056;-66
2021/06/14 09:53:44;;;;;;;6.60;3.10;;;;;;;;;;10316956;28;20084;-66
2021/06/14 09:58:42;;;;;;;5.20;3.45;;;;;;;;;;10328889;28;20292;-66
2021/06/14 10:03:44;;;;;;;7.22;3.60;;;;;;;;;;10333798;28;20059;-66
2021/06/14 10:08:43;;;;;;;5.70;3.00;;;;;;;;;;10336148;28;20049;-66
2021/06/14 10:13:42;;;;;;;5.43;3.08;;;;;;;;;;10336056;28;20048;-66
2021/06/14 10:18:44;;;;;;;6.90;3.05;;;;;;;;;;10314000;28;20044;-66
2021/06/14 10:23:42;;;;;;;5.15;2.97;;;;;;;;;;10312926;28;20367;-66
2021/06/14 10:28:40;;;;;;;5.87;3.20;;;;;;;;;;10307778;28;20029;-66
2021/06/14 10:33:38;;;;;;;6.00;3.42;;;;;;;;;;10328608;28;20612;-66
2021/06/14 10:38:39;;;;;;;7.50;3.03;;;;;;;;;;10321482;28;20090;-67
2021/06/14 10:43:38;;;;;;;6.68;3.20;;;;;;;;;;10285678;28;20479;-67
2021/06/14 10:48:35;;;;;;;5.07;3.15;;;;;;;;;;10326419;28;20040;-67
2021/06/14 10:53:33;;;;;;;4.63;2.90;;;;;;;;;;10278537;28;20845;-67
2021/06/14 10:58:30;;;;;;;6.30;3.10;;;;;;;;;;10312920;28;20495;-68
2021/06/14 11:03:38;;;;;;;5.20;3.38;;;;;;;;;;10301231;28;20644;-67
2021/06/14 11:08:35;;;;;;;4.43;3.00;;;;;;;;;;10316213;28;20052;-67
2021/06/14 11:13:34;;;;;;;7.73;2.90;;;;;;;;;;10325315;28;20025;-68
2021/06/14 11:18:32;;;;;;;4.57;2.78;;;;;;;;;;10258832;28;20030;-67
2021/06/14 11:23:30;;;;;;;3.80;2.60;;;;;;;;;;10309978;28;20025;-67
2021/06/14 11:28:29;;;;;;;4.60;3.00;;;;;;;;;;10326172;28;20029;-67
2021/06/14 11:33:28;;;;;;;7.65;2.80;;;;;;;;;;10314922;28;20116;-67
2021/06/14 11:38:26;;;;;;;4.40;2.67;;;;;;;;;;10317018;28;20040;-67
2021/06/14 11:43:24;;;;;;;4.05;3.20;;;;;;;;;;10307234;28;20028;-66
2021/06/14 11:48:21;;;;;;;5.13;2.85;;;;;;;;;;10327517;28;20045;-67
2021/06/14 11:53:19;;;;;;;4.97;2.42;;;;;;;;;;10339744;28;20025;-67
2021/06/14 11:58:17;;;;;;;3.63;2.50;;;;;;;;;;10301789;28;20061;-67
2021/06/14 12:03:19;;;;;;;4.53;2.65;;;;;;;;;;10329679;28;20056;-67
2021/06/14 12:08:18;;;;;;;3.85;2.67;;;;;;;;;;10316105;28;20039;-67
2021/06/14 12:13:18;;;;;;;5.40;2.53;;;;;;;;;;10275546;28;20038;-67
2021/06/14 12:18:16;;;;;;;8.35;4.22;;;;;;;;;;10291353;28;20057;-66
2021/06/14 12:23:15;;;;;;;11.35;4.65;;;;;;;;;;10286715;28;20478;-66
2021/06/14 12:28:13;;;;;;;10.43;3.95;;;;;;;;;;10300439;28;20034;-66
2021/06/14 12:33:11;;;;;;;7.32;3.22;;;;;;;;;;10293951;28;20041;-66
2021/06/14 12:38:10;;;;;;;7.72;3.47;;;;;;;;;;10285915;28;20507;-67
2021/06/14 12:43:09;;;;;;;3.67;2.47;;;;;;;;;;10288808;28;20099;-68
2021/06/14 12:48:10;;;;;;;4.28;2.25;;;;;;;;;;10275678;28;20068;-67
2021/06/14 12:53:08;;;;;;;4.35;2.15;;;;;;;;;;10283283;28;20038;-67
2021/06/14 12:58:07;;;;;;;4.50;2.35;;;;;;;;;;10299557;28;20033;-68
2021/06/14 13:03:05;;;;;;;3.88;2.00;;;;;;;;;;10279671;28;20198;-68
2021/06/14 13:08:05;;;;;;;2.33;1.70;;;;;;;;;;10249814;28;20045;-68
2021/06/14 13:13:12;;;;;;;3.38;2.28;;;;;;;;;;10272103;28;20033;-68
2021/06/14 13:18:10;;;;;;;3.55;2.05;;;;;;;;;;10294788;28;20129;-68
2021/06/14 13:23:13;;;;;;;6.00;2.60;;;;;;;;;;10285929;28;20388;-68
2021/06/14 13:28:12;;;;;;;5.25;2.90;;;;;;;;;;10259112;28;20091;-67
2021/06/14 13:33:20;;;;;;;4.35;2.67;;;;;;;;;;10269181;28;20511;-68
2021/06/14 13:38:23;;;;;;;5.15;2.63;;;;;;;;;;10268762;28;20030;-67
2021/06/14 13:43:28;;;;;;;3.30;2.65;;;;;;;;;;10276632;28;20032;-67
2021/06/14 13:48:26;;;;;;;5.65;3.40;;;;;;;;;;10295034;28;20132;-67
2021/06/14 13:53:27;;;;;;;4.18;2.33;;;;;;;;;;10277212;28;20054;-68
2021/06/14 13:58:51;;;;;;;4.65;3.10;;;;;;;;;;10285844;28;20096;-68
2021/06/14 14:04:03;;;;;;;6.35;3.47;;;;;;;;;;10255930;28;20038;-68
2021/06/14 14:09:03;;;;;;;4.63;2.95;;;;;;;;;;10270668;28;20037;-67
2021/06/14 14:14:00;;;;;;;4.13;3.00;;;;;;;;;;10246638;28;20066;-68
2021/06/14 14:19:01;;;;;;;3.83;3.20;;;;;;;;;;10300959;28;20315;-68
2021/06/14 14:24:03;;;;;;;4.50;3.25;;;;;;;;;;10306265;28;20038;-68
2021/06/14 14:29:01;;;;;;;5.25;3.10;;;;;;;;;;10292449;28;20060;-68
2021/06/14 14:33:58;;;;;;;4.75;3.28;;;;;;;;;;10259664;28;20049;-68
2021/06/14 14:39:10;;;;;;;4.47;3.10;;;;;;;;;;10292020;28;20033;-67
2021/06/14 14:44:08;;;;;;;4.95;3.10;;;;;;;;;;10281877;28;20279;-68
2021/06/14 14:49:06;;;;;;;4.53;2.80;;;;;;;;;;10290099;28;20169;-67
2021/06/14 14:54:13;;;;;;;4.78;2.92;;;;;;;;;;10267421;28;20124;-68
2021/06/14 14:59:10;;;;;;;6.43;3.75;;;;;;;;;;10273456;28;20129;-67
2021/06/14 15:04:08;;;;;;;5.38;3.10;;;;;;;;;;10289249;28;20105;-67
2021/06/14 15:09:06;;;;;;;7.38;3.33;;;;;;;;;;10296971;28;20463;-68
2021/06/14 15:14:04;;;;;;;6.18;3.10;;;;;;;;;;10267202;28;20249;-68
2021/06/14 15:19:03;;;;;;;5.68;2.83;;;;;;;;;;10268796;28;20139;-68
2021/06/14 15:24:00;;;;;;;3.60;2.67;;;;;;;;;;10248970;28;20061;-68
2021/06/14 15:28:57;;;;;;;4.63;2.90;;;;;;;;;;10267781;28;20079;-68
2021/06/14 15:33:56;;;;;;;5.93;2.83;;;;;;;;;;10293114;28;20047;-67
2021/06/14 15:38:54;;;;;;;6.07;3.33;;;;;;;;;;10280450;28;20107;-67
2021/06/14 15:43:52;;;;;;;3.92;3.03;;;;;;;;;;10299950;28;20047;-67
2021/06/14 15:48:51;;;;;;;5.68;3.17;;;;;;;;;;10289014;28;20095;-67
2021/06/14 15:53:49;;;;;;;8.80;3.70;;;;;;;;;;10260479;28;20050;-67
2021/06/14 15:58:46;;;;;;;5.33;3.47;;;;;;;;;;10289878;28;20037;-67
2021/06/14 16:03:44;;;;;;;5.63;3.23;;;;;;;;;;10272906;28;20417;-67
2021/06/14 16:08:41;;;;;;;7.33;3.97;;;;;;;;;;10309185;28;20268;-67
2021/06/14 16:13:40;;;;;;;8.30;3.65;;;;;;;;;;10293373;28;20142;-67
2021/06/14 16:18:38;;;;;;;5.32;3.33;;;;;;;;;;10275679;28;20037;-67
2021/06/14 16:23:35;;;;;;;4.50;3.40;;;;;;;;;;10279258;28;20034;-68
2021/06/14 16:28:34;;;;;;;7.37;4.13;;;;;;;;;;10295901;28;20295;-67
2021/06/14 16:33:31;;;;;;;5.70;3.50;;;;;;;;;;10286793;28;20459;-67
2021/06/14 16:38:29;;;;;;;7.13;3.13;;;;;;;;;;10305378;28;20100;-66
2021/06/14 16:43:27;;;;;;;5.07;3.40;;;;;;;;;;10314128;28;20033;-68
2021/06/14 16:48:24;;;;;;;7.10;3.67;;;;;;;;;;10286186;28;20051;-68
2021/06/14 16:53:22;;;;;;;6.03;3.42;;;;;;;;;;10300654;28;20124;-68
2021/06/14 16:58:19;;;;;;;5.60;3.38;;;;;;;;;;10295343;28;20124;-68
2021/06/14 17:03:17;;;;;;;8.55;3.80;;;;;;;;;;10290640;28;20093;-67
2021/06/14 17:08:14;;;;;;;8.77;3.72;;;;;;;;;;10269237;28;20121;-67
2021/06/14 17:13:12;;;;;;;5.70;3.73;;;;;;;;;;10319835;28;20586;-68
2021/06/14 17:18:10;;;;;;;6.60;3.53;;;;;;;;;;10270559;28;20133;-67
2021/06/14 17:23:08;;;;;;;10.00;4.38;;;;;;;;;;10229196;28;20039;-67
2021/06/14 17:28:06;;;;;;;10.20;4.55;;;;;;;;;;10289438;28;20065;-67
2021/06/14 17:33:03;;;;;;;9.52;6.05;;;;;;;;;;10263685;28;20041;-67
2021/06/14 17:38:01;;;;;;;17.00;8.02;;;;;;;;;;10302528;28;20088;-67
2021/06/14 17:42:59;;;;;;;13.75;6.28;;;;;;;;;;10285151;28;20120;-67
2021/06/14 17:47:57;;;;;;;11.40;4.95;;;;;;;;;;10318395;28;20229;-67
2021/06/14 17:53:01;;;;;;;7.97;4.40;;;;;;;;;;10303541;28;20507;-67
2021/06/14 17:57:58;;;;;;;9.57;3.88;;;;;;;;;;10302576;28;20060;-67
2021/06/14 18:02:57;;;;;;;10.57;3.83;;;;;;;;;;10285459;28;20037;-67
2021/06/14 18:07:55;;;;;;;9.95;4.57;;;;;;;;;;10284684;28;20302;-67
2021/06/14 18:12:52;;;;;;;6.50;3.75;;;;;;;;;;10317313;28;20558;-67
2021/06/14 18:17:50;;;;;;;7.60;4.03;;;;;;;;;;10276726;28;20040;-67
2021/06/14 18:22:48;;;;;;;6.88;3.85;;;;;;;;;;10281769;28;20090;-67
2021/06/14 18:27:45;;;;;;;8.98;3.78;;;;;;;;;;10315972;28;20098;-67
2021/06/14 18:32:49;;;;;;;8.38;4.25;;;;;;;;;;10301721;28;20037;-67
2021/06/14 18:37:46;;;;;;;7.97;4.00;;;;;;;;;;10315811;28;20049;-66
2021/06/14 18:42:44;;;;;;;7.68;4.10;;;;;;;;;;10284139;28;20030;-67
2021/06/14 18:47:41;;;;;;;8.75;3.88;;;;;;;;;;10282517;28;20037;-67
2021/06/14 18:52:39;;;;;;;7.95;4.30;;;;;;;;;;10282795;28;20052;-67
2021/06/14 18:57:36;;;;;;;7.32;4.00;;;;;;;;;;10283037;28;20044;-66
2021/06/14 19:02:34;;;;;;;6.20;3.50;;;;;;;;;;10264361;28;20037;-67
2021/06/14 19:07:32;;;;;;;6.32;3.50;;;;;;;;;;10267067;28;20526;-66
2021/06/14 19:12:29;;;;;;;7.10;3.90;;;;;;;;;;10296839;28;20033;-67
2021/06/14 19:17:28;;;;;;;5.97;3.83;;;;;;;;;;10302373;28;20086;-66
2021/06/14 19:22:25;;;;;;;8.32;4.07;;;;;;;;;;10285610;28;20272;-66
2021/06/14 19:27:23;;;;;;;7.03;3.90;;;;;;;;;;10318676;28;20396;-66
2021/06/14 19:32:21;;;;;;;11.03;4.27;;;;;;;;;;10269001;28;20363;-66
2021/06/14 19:37:19;;;;;;;8.85;3.63;;;;;;;;;;10304470;28;20663;-66
2021/06/14 19:42:16;;;;;;;8.63;3.35;;;;;;;;;;10303070;28;20037;-67
2021/06/14 19:47:13;;;;;;;9.97;4.07;;;;;;;;;;10303314;28;20041;-66
2021/06/14 19:52:11;;;;;;;7.97;3.93;;;;;;;;;;10301264;28;20303;-67
2021/06/14 19:57:09;;;;;;;7.80;3.92;;;;;;;;;;10297400;28;20835;-67
2021/06/14 20:02:07;;;;;;;8.68;4.07;;;;;;;;;;10280416;28;20066;-66
2021/06/14 20:07:04;;;;;;;13.93;4.22;;;;;;;;;;10296392;28;20036;-67
2021/06/14 20:12:02;;;;;;;8.80;3.90;;;;;;;;;;10298346;28;20037;-66
2021/06/14 20:16:59;;;;;;;10.27;4.45;;;;;;;;;;10279358;28;20295;-67
2021/06/14 20:21:57;;;;;;;7.13;3.38;;;;;;;;;;10297644;28;20084;-67
2021/06/14 20:26:54;;;;;;;9.23;3.92;;;;;;;;;;10297597;28;20103;-65
2021/06/14 20:31:52;;;;;;;5.20;3.45;;;;;;;;;;10298353;28;20080;-65
2021/06/14 20:36:50;;;;;;;7.60;3.72;;;;;;;;;;10297512;28;20049;-65
2021/06/14 20:41:47;;;;;;;5.85;3.63;;;;;;;;;;10290258;28;20033;-65
2021/06/14 20:46:45;;;;;;;;;;;;;;;;;;10298395;28;20056;-65
2021/06/14 20:51:42;;;;;;;7.60;3.57;;;;;;;;;;10297666;28;20375;-66
2021/06/14 20:56:39;;;;;;;;;;;;;;;;;;10312407;28;20279;-66
2021/06/14 21:01:37;;;;;;;6.70;3.25;;;;;;;;;;10262793;28;20329;-65
2021/06/14 21:06:34;;;;;;;;;;;;;;;;;;10297760;28;20034;-66
2021/06/14 21:11:32;;;;;;;9.43;3.40;;;;;;;;;;10279701;28;20342;-66
2021/06/14 21:16:29;;;;;;;;;;;;;;;;;;10285821;28;20285;-66
2021/06/14 21:21:26;;;;;;;7.05;2.80;;;;;;;;;;10304778;28;19924;-66
2021/06/14 21:26:24;;;;;;;;;;;;;;;;;;10320692;28;20046;-66
2021/06/14 21:31:23;;;;;;;7.83;3.43;;;;;;;;;;10270059;28;20283;-66
2021/06/14 21:36:20;;;;;;;7.20;3.45;;;;;;;;;;10285831;28;20276;-65
2021/06/14 21:41:18;;;;;;;11.20;3.20;;;;;;;;;;10285562;28;20045;-65
2021/06/14 21:46:16;;;;;;;9.80;3.60;;;;;;;;;;10285287;28;20298;-65
2021/06/14 21:51:13;;;;;;;8.20;3.30;;;;;;;;;;10303395;28;20041;-65
2021/06/14 21:56:11;;;;;;;8.90;3.10;;;;;;;;;;10284781;28;20042;-65
2021/06/14 22:01:08;;;;;;;11.70;3.67;;;;;;;;;;10301692;28;20043;-65
2021/06/14 22:06:06;;;;;;;9.43;3.13;;;;;;;;;;10317782;28;20315;-65
2021/06/14 22:11:04;;;;;;;9.10;3.30;;;;;;;;;;10293364;28;20272;-65
2021/06/14 22:16:03;;;;;;;12.07;3.10;;;;;;;;;;10285725;28;20079;-65
2021/06/14 22:21:00;;;;;;;5.57;2.67;;;;;;;;;;10275788;28;20041;-65
2021/06/14 22:25:58;;;;;;;6.47;2.70;;;;;;;;;;10288378;28;20034;-66
2021/06/14 22:30:55;;;;;;;6.20;2.17;;;;;;;;;;10291966;28;20041;-65
2021/06/14 22:35:53;;;;;;;5.78;2.05;;;;;;;;;;10287967;28;20120;-65
2021/06/14 22:40:51;;;;;;;9.35;2.55;;;;;;;;;;10302655;28;20337;-65
2021/06/14 22:45:48;;;;;;;6.47;2.00;;;;;;;;;;10282558;28;20033;-65
2021/06/14 22:50:46;;;;;;;8.93;2.30;;;;;;;;;;10287723;28;20495;-65
2021/06/14 22:55:44;;;;;;;5.50;2.38;;;;;;;;;;10292268;28;20030;-65
2021/06/14 23:00:42;;;;;;;6.50;2.28;;;;;;;;;;10263513;28;20519;-65
2021/06/14 23:05:39;;;;;;;6.28;1.70;;;;;;;;;;10287242;28;20072;-65
2021/06/14 23:10:37;;;;;;;6.00;1.60;;;;;;;;;;10274362;28;20057;-65
2021/06/14 23:15:34;;;;;;;6.13;1.67;;;;;;;;;;10283050;28;20109;-65
2021/06/14 23:20:32;;;;;;;9.40;1.63;;;;;;;;;;10302759;28;20117;-65
2021/06/14 23:25:29;;;;;;;6.90;1.70;;;;;;;;;;10288800;28;20403;-65
2021/06/14 23:30:27;;;;;;;7.87;1.77;;;;;;;;;;10300968;28;20041;-65
2021/06/14 23:35:24;;;;;;;7.53;1.77;;;;;;;;;;10263340;28;20516;-65
2021/06/14 23:40:22;;;;;;;8.67;1.80;;;;;;;;;;10297010;28;20405;-65
2021/06/14 23:45:20;;;;;;;6.68;1.70;;;;;;;;;;10297636;28;20037;-65
2021/06/14 23:50:17;;;;;;;7.65;1.48;;;;;;;;;;10304098;28;20175;-65
2021/06/14 23:55:16;;;;;;;6.03;1.70;;;;;;;;;;10273521;28;20359;-65
